sensor_id;sensor_type;location;lat;lon;timestamp;P1;durP1;ratioP1;P2;durP2;ratioP2
16385;SDS011;8302;51.154;4.456;2023-02-28T00:00:54;3.40;;;1.65;;
16385;SDS011;8302;51.154;4.456;2023-02-28T00:03:22;1.10;;;1.00;;
16385;SDS011;8302;51.154;4.456;2023-02-28T00:05:51;0.85;;;0.85;;
16385;SDS011;8302;51.154;4.456;2023-02-28T00:08:18;0.95;;;0.93;;
16385;SDS011;8302;51.154;4.456;2023-02-28T00:10:46;2.22;;;1.05;;
16385;SDS011;8302;51.154;4.456;2023-02-28T00:13:13;3.20;;;1.25;;
16385;SDS011;8302;51.154;4.456;2023-02-28T00:15:41;1.77;;;0.82;;
16385;SDS011;8302;51.154;4.456;2023-02-28T00:18:09;2.10;;;1.00;;
16385;SDS011;8302;51.154;4.456;2023-02-28T00:20:37;0.80;;;0.80;;
16385;SDS011;8302;51.154;4.456;2023-02-28T00:23:07;1.60;;;1.05;;
16385;SDS011;8302;51.154;4.456;2023-02-28T00:25:35;1.33;;;0.80;;
16385;SDS011;8302;51.154;4.456;2023-02-28T00:28:03;1.88;;;1.58;;
16385;SDS011;8302;51.154;4.456;2023-02-28T00:30:31;2.83;;;1.35;;
16385;SDS011;8302;51.154;4.456;2023-02-28T00:32:59;1.30;;;1.20;;
16385;SDS011;8302;51.154;4.456;2023-02-28T00:35:27;1.52;;;1.05;;
16385;SDS011;8302;51.154;4.456;2023-02-28T00:37:54;1.30;;;1.17;;
16385;SDS011;8302;51.154;4.456;2023-02-28T00:40:23;1.73;;;1.08;;
16385;SDS011;8302;51.154;4.456;2023-02-28T00:42:52;1.00;;;1.00;;
16385;SDS011;8302;51.154;4.456;2023-02-28T00:45:19;2.05;;;0.88;;
16385;SDS011;8302;51.154;4.456;2023-02-28T00:47:47;1.17;;;0.95;;
16385;SDS011;8302;51.154;4.456;2023-02-28T00:50:17;3.08;;;1.38;;
16385;SDS011;8302;51.154;4.456;2023-02-28T00:52:44;2.33;;;0.98;;
16385;SDS011;8302;51.154;4.456;2023-02-28T00:55:13;1.50;;;1.02;;
16385;SDS011;8302;51.154;4.456;2023-02-28T00:57:42;2.42;;;1.20;;
16385;SDS011;8302;51.154;4.456;2023-02-28T01:00:10;1.85;;;1.20;;
16385;SDS011;8302;51.154;4.456;2023-02-28T01:02:38;1.45;;;0.93;;
16385;SDS011;8302;51.154;4.456;2023-02-28T01:05:07;1.27;;;0.88;;
16385;SDS011;8302;51.154;4.456;2023-02-28T01:07:35;3.13;;;1.40;;
16385;SDS011;8302;51.154;4.456;2023-02-28T01:10:02;1.23;;;1.13;;
16385;SDS011;8302;51.154;4.456;2023-02-28T01:12:30;1.20;;;1.10;;
16385;SDS011;8302;51.154;4.456;2023-02-28T01:14:59;1.80;;;1.10;;
16385;SDS011;8302;51.154;4.456;2023-02-28T01:17:27;1.02;;;0.95;;
16385;SDS011;8302;51.154;4.456;2023-02-28T01:19:54;1.17;;;1.05;;
16385;SDS011;8302;51.154;4.456;2023-02-28T01:22:24;1.00;;;0.90;;
16385;SDS011;8302;51.154;4.456;2023-02-28T01:24:51;1.55;;;1.10;;
16385;SDS011;8302;51.154;4.456;2023-02-28T01:27:19;1.13;;;1.02;;
16385;SDS011;8302;51.154;4.456;2023-02-28T01:29:47;3.20;;;1.45;;
16385;SDS011;8302;51.154;4.456;2023-02-28T01:32:16;1.33;;;1.23;;
16385;SDS011;8302;51.154;4.456;2023-02-28T01:34:44;1.02;;;0.93;;
16385;SDS011;8302;51.154;4.456;2023-02-28T01:37:11;1.45;;;1.30;;
16385;SDS011;8302;51.154;4.456;2023-02-28T01:39:42;0.95;;;0.88;;
16385;SDS011;8302;51.154;4.456;2023-02-28T01:42:10;1.98;;;1.23;;
16385;SDS011;8302;51.154;4.456;2023-02-28T01:44:58;0.98;;;0.90;;
16385;SDS011;8302;51.154;4.456;2023-02-28T01:47:28;3.00;;;1.08;;
16385;SDS011;8302;51.154;4.456;2023-02-28T01:49:56;1.42;;;1.33;;
16385;SDS011;8302;51.154;4.456;2023-02-28T01:52:24;2.25;;;1.25;;
16385;SDS011;8302;51.154;4.456;2023-02-28T01:54:54;1.45;;;1.15;;
16385;SDS011;8302;51.154;4.456;2023-02-28T01:57:23;1.25;;;1.00;;
16385;SDS011;8302;51.154;4.456;2023-02-28T01:59:54;3.40;;;1.38;;
16385;SDS011;8302;51.154;4.456;2023-02-28T02:02:22;1.50;;;1.23;;
16385;SDS011;8302;51.154;4.456;2023-02-28T02:04:52;1.02;;;0.93;;
16385;SDS011;8302;51.154;4.456;2023-02-28T02:07:21;1.17;;;1.05;;
16385;SDS011;8302;51.154;4.456;2023-02-28T02:09:56;0.70;;;0.70;;
16385;SDS011;8302;51.154;4.456;2023-02-28T02:12:25;1.13;;;1.02;;
16385;SDS011;8302;51.154;4.456;2023-02-28T02:14:58;4.78;;;1.42;;
16385;SDS011;8302;51.154;4.456;2023-02-28T02:17:28;2.38;;;1.23;;
16385;SDS011;8302;51.154;4.456;2023-02-28T02:20:07;1.90;;;1.30;;
16385;SDS011;8302;51.154;4.456;2023-02-28T02:25:30;1.23;;;1.10;;
16385;SDS011;8302;51.154;4.456;2023-02-28T02:28:04;0.95;;;0.85;;
16385;SDS011;8302;51.154;4.456;2023-02-28T02:36:08;3.35;;;1.58;;
16385;SDS011;8302;51.154;4.456;2023-02-28T02:38:38;3.17;;;1.17;;
16385;SDS011;8302;51.154;4.456;2023-02-28T02:41:12;2.20;;;1.35;;
16385;SDS011;8302;51.154;4.456;2023-02-28T02:43:44;1.08;;;0.88;;
16385;SDS011;8302;51.154;4.456;2023-02-28T02:46:14;3.10;;;1.30;;
16385;SDS011;8302;51.154;4.456;2023-02-28T02:48:43;1.15;;;0.80;;
16385;SDS011;8302;51.154;4.456;2023-02-28T02:51:14;2.45;;;1.38;;
16385;SDS011;8302;51.154;4.456;2023-02-28T02:53:45;1.13;;;0.70;;
16385;SDS011;8302;51.154;4.456;2023-02-28T02:56:15;1.42;;;1.00;;
16385;SDS011;8302;51.154;4.456;2023-02-28T02:58:45;1.05;;;0.95;;
16385;SDS011;8302;51.154;4.456;2023-02-28T03:01:14;1.73;;;1.13;;
16385;SDS011;8302;51.154;4.456;2023-02-28T03:03:45;1.15;;;1.05;;
16385;SDS011;8302;51.154;4.456;2023-02-28T03:06:14;2.88;;;1.13;;
16385;SDS011;8302;51.154;4.456;2023-02-28T03:08:42;1.30;;;0.75;;
16385;SDS011;8302;51.154;4.456;2023-02-28T03:11:11;1.60;;;1.38;;
16385;SDS011;8302;51.154;4.456;2023-02-28T03:13:44;1.80;;;1.30;;
16385;SDS011;8302;51.154;4.456;2023-02-28T03:16:22;1.42;;;1.10;;
16385;SDS011;8302;51.154;4.456;2023-02-28T03:18:57;2.30;;;1.40;;
16385;SDS011;8302;51.154;4.456;2023-02-28T03:21:33;3.92;;;1.17;;
16385;SDS011;8302;51.154;4.456;2023-02-28T03:24:03;2.47;;;1.25;;
16385;SDS011;8302;51.154;4.456;2023-02-28T03:26:34;1.60;;;1.00;;
16385;SDS011;8302;51.154;4.456;2023-02-28T03:29:04;1.52;;;1.40;;
16385;SDS011;8302;51.154;4.456;2023-02-28T03:31:33;1.05;;;0.80;;
16385;SDS011;8302;51.154;4.456;2023-02-28T03:34:03;2.33;;;0.95;;
16385;SDS011;8302;51.154;4.456;2023-02-28T03:36:33;1.55;;;1.17;;
16385;SDS011;8302;51.154;4.456;2023-02-28T03:39:08;1.05;;;0.93;;
16385;SDS011;8302;51.154;4.456;2023-02-28T03:41:38;2.80;;;1.30;;
16385;SDS011;8302;51.154;4.456;2023-02-28T03:44:09;1.50;;;1.23;;
16385;SDS011;8302;51.154;4.456;2023-02-28T03:46:42;1.35;;;1.25;;
16385;SDS011;8302;51.154;4.456;2023-02-28T03:49:12;3.60;;;1.35;;
16385;SDS011;8302;51.154;4.456;2023-02-28T03:51:44;5.78;;;1.10;;
16385;SDS011;8302;51.154;4.456;2023-02-28T03:54:12;1.88;;;1.20;;
16385;SDS011;8302;51.154;4.456;2023-02-28T03:56:43;3.97;;;1.10;;
16385;SDS011;8302;51.154;4.456;2023-02-28T03:59:12;1.65;;;1.25;;
16385;SDS011;8302;51.154;4.456;2023-02-28T04:01:41;3.63;;;0.90;;
16385;SDS011;8302;51.154;4.456;2023-02-28T04:04:11;0.77;;;0.77;;
16385;SDS011;8302;51.154;4.456;2023-02-28T04:06:39;2.60;;;1.35;;
16385;SDS011;8302;51.154;4.456;2023-02-28T04:09:09;2.05;;;1.20;;
16385;SDS011;8302;51.154;4.456;2023-02-28T04:11:40;1.63;;;1.40;;
16385;SDS011;8302;51.154;4.456;2023-02-28T04:14:09;1.38;;;1.27;;
16385;SDS011;8302;51.154;4.456;2023-02-28T04:16:38;1.00;;;0.73;;
16385;SDS011;8302;51.154;4.456;2023-02-28T04:19:07;2.35;;;1.83;;
16385;SDS011;8302;51.154;4.456;2023-02-28T04:21:35;1.17;;;0.90;;
16385;SDS011;8302;51.154;4.456;2023-02-28T04:24:04;1.83;;;1.38;;
16385;SDS011;8302;51.154;4.456;2023-02-28T04:26:34;1.15;;;1.00;;
16385;SDS011;8302;51.154;4.456;2023-02-28T04:29:03;1.58;;;0.93;;
16385;SDS011;8302;51.154;4.456;2023-02-28T04:31:30;1.75;;;1.15;;
16385;SDS011;8302;51.154;4.456;2023-02-28T04:33:58;1.65;;;1.08;;
16385;SDS011;8302;51.154;4.456;2023-02-28T04:36:26;0.77;;;0.77;;
16385;SDS011;8302;51.154;4.456;2023-02-28T04:38:54;2.42;;;1.30;;
16385;SDS011;8302;51.154;4.456;2023-02-28T04:41:22;1.13;;;1.02;;
16385;SDS011;8302;51.154;4.456;2023-02-28T04:43:51;3.50;;;0.93;;
16385;SDS011;8302;51.154;4.456;2023-02-28T04:46:19;1.27;;;0.85;;
16385;SDS011;8302;51.154;4.456;2023-02-28T04:48:47;1.42;;;1.08;;
16385;SDS011;8302;51.154;4.456;2023-02-28T04:51:15;1.83;;;1.30;;
16385;SDS011;8302;51.154;4.456;2023-02-28T04:53:43;1.13;;;1.02;;
16385;SDS011;8302;51.154;4.456;2023-02-28T04:56:11;1.10;;;1.00;;
16385;SDS011;8302;51.154;4.456;2023-02-28T04:58:39;1.58;;;1.27;;
16385;SDS011;8302;51.154;4.456;2023-02-28T05:01:15;1.58;;;0.90;;
16385;SDS011;8302;51.154;4.456;2023-02-28T05:03:43;1.55;;;1.02;;
16385;SDS011;8302;51.154;4.456;2023-02-28T05:06:11;1.15;;;1.05;;
16385;SDS011;8302;51.154;4.456;2023-02-28T05:08:39;3.15;;;1.35;;
16385;SDS011;8302;51.154;4.456;2023-02-28T05:11:07;0.75;;;0.75;;
16385;SDS011;8302;51.154;4.456;2023-02-28T05:13:35;1.00;;;0.95;;
16385;SDS011;8302;51.154;4.456;2023-02-28T05:16:03;3.20;;;1.10;;
16385;SDS011;8302;51.154;4.456;2023-02-28T05:18:32;1.90;;;1.38;;
16385;SDS011;8302;51.154;4.456;2023-02-28T05:21:00;2.03;;;1.42;;
16385;SDS011;8302;51.154;4.456;2023-02-28T05:23:28;0.82;;;0.73;;
16385;SDS011;8302;51.154;4.456;2023-02-28T05:25:56;1.33;;;1.10;;
16385;SDS011;8302;51.154;4.456;2023-02-28T05:28:24;1.65;;;1.08;;
16385;SDS011;8302;51.154;4.456;2023-02-28T05:30:51;1.15;;;0.98;;
16385;SDS011;8302;51.154;4.456;2023-02-28T05:33:19;2.72;;;1.20;;
16385;SDS011;8302;51.154;4.456;2023-02-28T05:35:48;2.40;;;1.40;;
16385;SDS011;8302;51.154;4.456;2023-02-28T05:38:15;0.85;;;0.85;;
16385;SDS011;8302;51.154;4.456;2023-02-28T05:40:44;1.63;;;1.30;;
16385;SDS011;8302;51.154;4.456;2023-02-28T05:43:11;1.52;;;1.17;;
16385;SDS011;8302;51.154;4.456;2023-02-28T05:45:39;1.98;;;0.95;;
16385;SDS011;8302;51.154;4.456;2023-02-28T05:48:07;4.13;;;1.25;;
16385;SDS011;8302;51.154;4.456;2023-02-28T05:50:35;1.55;;;1.10;;
16385;SDS011;8302;51.154;4.456;2023-02-28T05:53:04;1.13;;;0.93;;
16385;SDS011;8302;51.154;4.456;2023-02-28T05:55:32;1.58;;;1.48;;
16385;SDS011;8302;51.154;4.456;2023-02-28T05:57:59;1.42;;;1.00;;
16385;SDS011;8302;51.154;4.456;2023-02-28T06:00:27;2.03;;;1.05;;
16385;SDS011;8302;51.154;4.456;2023-02-28T06:02:54;1.90;;;1.38;;
16385;SDS011;8302;51.154;4.456;2023-02-28T06:05:26;1.00;;;0.90;;
16385;SDS011;8302;51.154;4.456;2023-02-28T06:07:54;2.40;;;1.13;;
16385;SDS011;8302;51.154;4.456;2023-02-28T06:10:23;4.03;;;1.67;;
16385;SDS011;8302;51.154;4.456;2023-02-28T06:12:50;4.78;;;1.85;;
16385;SDS011;8302;51.154;4.456;2023-02-28T06:15:18;1.58;;;1.20;;
16385;SDS011;8302;51.154;4.456;2023-02-28T06:17:47;1.60;;;1.27;;
16385;SDS011;8302;51.154;4.456;2023-02-28T06:20:14;1.42;;;1.20;;
16385;SDS011;8302;51.154;4.456;2023-02-28T06:22:42;9.60;;;2.00;;
16385;SDS011;8302;51.154;4.456;2023-02-28T06:25:10;11.52;;;3.53;;
16385;SDS011;8302;51.154;4.456;2023-02-28T06:27:39;8.73;;;3.22;;
16385;SDS011;8302;51.154;4.456;2023-02-28T06:30:07;9.77;;;3.97;;
16385;SDS011;8302;51.154;4.456;2023-02-28T06:32:35;8.93;;;3.92;;
16385;SDS011;8302;51.154;4.456;2023-02-28T06:35:03;10.50;;;4.32;;
16385;SDS011;8302;51.154;4.456;2023-02-28T06:37:31;12.85;;;3.65;;
16385;SDS011;8302;51.154;4.456;2023-02-28T06:39:58;11.90;;;4.38;;
16385;SDS011;8302;51.154;4.456;2023-02-28T06:42:26;8.35;;;4.15;;
16385;SDS011;8302;51.154;4.456;2023-02-28T06:44:58;6.30;;;3.50;;
16385;SDS011;8302;51.154;4.456;2023-02-28T06:47:26;2.83;;;1.83;;
16385;SDS011;8302;51.154;4.456;2023-02-28T06:49:53;5.80;;;2.03;;
16385;SDS011;8302;51.154;4.456;2023-02-28T06:52:21;9.07;;;2.65;;
16385;SDS011;8302;51.154;4.456;2023-02-28T06:54:49;9.57;;;2.85;;
16385;SDS011;8302;51.154;4.456;2023-02-28T06:57:26;9.50;;;2.13;;
16385;SDS011;8302;51.154;4.456;2023-02-28T06:59:58;4.07;;;1.83;;
16385;SDS011;8302;51.154;4.456;2023-02-28T07:02:26;7.55;;;2.55;;
16385;SDS011;8302;51.154;4.456;2023-02-28T07:04:54;4.55;;;2.15;;
16385;SDS011;8302;51.154;4.456;2023-02-28T07:07:21;3.25;;;2.13;;
16385;SDS011;8302;51.154;4.456;2023-02-28T07:09:49;3.75;;;1.98;;
16385;SDS011;8302;51.154;4.456;2023-02-28T07:12:16;5.65;;;2.03;;
16385;SDS011;8302;51.154;4.456;2023-02-28T07:14:44;2.97;;;2.33;;
16385;SDS011;8302;51.154;4.456;2023-02-28T07:17:13;5.70;;;1.92;;
16385;SDS011;8302;51.154;4.456;2023-02-28T07:19:40;3.63;;;1.92;;
16385;SDS011;8302;51.154;4.456;2023-02-28T07:22:08;2.67;;;1.73;;
16385;SDS011;8302;51.154;4.456;2023-02-28T07:24:36;6.75;;;2.03;;
16385;SDS011;8302;51.154;4.456;2023-02-28T07:27:04;7.75;;;1.15;;
16385;SDS011;8302;51.154;4.456;2023-02-28T07:29:32;2.50;;;1.50;;
16385;SDS011;8302;51.154;4.456;2023-02-28T07:32:00;7.10;;;1.95;;
16385;SDS011;8302;51.154;4.456;2023-02-28T07:34:29;2.42;;;1.73;;
16385;SDS011;8302;51.154;4.456;2023-02-28T07:36:56;3.33;;;1.60;;
16385;SDS011;8302;51.154;4.456;2023-02-28T07:39:24;2.92;;;1.92;;
16385;SDS011;8302;51.154;4.456;2023-02-28T07:41:52;2.40;;;1.73;;
16385;SDS011;8302;51.154;4.456;2023-02-28T07:44:24;5.32;;;2.03;;
16385;SDS011;8302;51.154;4.456;2023-02-28T07:46:52;7.55;;;1.73;;
16385;SDS011;8302;51.154;4.456;2023-02-28T07:49:20;1.63;;;1.23;;
16385;SDS011;8302;51.154;4.456;2023-02-28T07:51:49;4.57;;;1.75;;
16385;SDS011;8302;51.154;4.456;2023-02-28T07:54:16;1.83;;;1.30;;
16385;SDS011;8302;51.154;4.456;2023-02-28T07:56:44;5.57;;;1.58;;
16385;SDS011;8302;51.154;4.456;2023-02-28T07:59:11;3.80;;;2.42;;
16385;SDS011;8302;51.154;4.456;2023-02-28T08:01:39;3.22;;;2.00;;
16385;SDS011;8302;51.154;4.456;2023-02-28T08:04:07;5.85;;;2.08;;
16385;SDS011;8302;51.154;4.456;2023-02-28T08:06:34;3.08;;;2.10;;
16385;SDS011;8302;51.154;4.456;2023-02-28T08:09:03;2.75;;;1.95;;
16385;SDS011;8302;51.154;4.456;2023-02-28T08:11:31;4.38;;;2.55;;
16385;SDS011;8302;51.154;4.456;2023-02-28T08:13:59;3.67;;;2.35;;
16385;SDS011;8302;51.154;4.456;2023-02-28T08:16:26;3.30;;;1.80;;
16385;SDS011;8302;51.154;4.456;2023-02-28T08:18:54;4.00;;;2.17;;
16385;SDS011;8302;51.154;4.456;2023-02-28T08:21:21;4.40;;;2.17;;
16385;SDS011;8302;51.154;4.456;2023-02-28T08:23:49;6.10;;;2.15;;
16385;SDS011;8302;51.154;4.456;2023-02-28T08:26:19;5.18;;;2.38;;
16385;SDS011;8302;51.154;4.456;2023-02-28T08:28:47;3.42;;;1.50;;
16385;SDS011;8302;51.154;4.456;2023-02-28T08:31:15;3.30;;;2.08;;
16385;SDS011;8302;51.154;4.456;2023-02-28T08:33:43;3.63;;;2.00;;
16385;SDS011;8302;51.154;4.456;2023-02-28T08:36:11;6.03;;;1.90;;
16385;SDS011;8302;51.154;4.456;2023-02-28T08:38:39;2.72;;;1.52;;
16385;SDS011;8302;51.154;4.456;2023-02-28T08:41:07;3.97;;;1.83;;
16385;SDS011;8302;51.154;4.456;2023-02-28T08:43:38;4.35;;;1.63;;
16385;SDS011;8302;51.154;4.456;2023-02-28T08:46:06;2.00;;;1.30;;
16385;SDS011;8302;51.154;4.456;2023-02-28T08:48:34;4.32;;;1.67;;
16385;SDS011;8302;51.154;4.456;2023-02-28T08:51:04;3.05;;;1.50;;
16385;SDS011;8302;51.154;4.456;2023-02-28T08:53:34;5.13;;;1.90;;
16385;SDS011;8302;51.154;4.456;2023-02-28T08:56:02;2.28;;;1.50;;
16385;SDS011;8302;51.154;4.456;2023-02-28T08:58:30;2.58;;;1.17;;
16385;SDS011;8302;51.154;4.456;2023-02-28T09:00:59;3.13;;;1.55;;
16385;SDS011;8302;51.154;4.456;2023-02-28T09:03:27;4.35;;;1.83;;
16385;SDS011;8302;51.154;4.456;2023-02-28T09:05:55;2.22;;;1.52;;
16385;SDS011;8302;51.154;4.456;2023-02-28T09:08:23;1.92;;;1.40;;
16385;SDS011;8302;51.154;4.456;2023-02-28T09:10:51;3.15;;;1.35;;
16385;SDS011;8302;51.154;4.456;2023-02-28T09:13:20;2.22;;;1.25;;
16385;SDS011;8302;51.154;4.456;2023-02-28T09:15:48;1.55;;;1.15;;
16385;SDS011;8302;51.154;4.456;2023-02-28T09:18:17;1.95;;;1.05;;
16385;SDS011;8302;51.154;4.456;2023-02-28T09:20:45;2.17;;;1.08;;
16385;SDS011;8302;51.154;4.456;2023-02-28T09:23:13;1.15;;;1.00;;
16385;SDS011;8302;51.154;4.456;2023-02-28T09:25:44;2.10;;;1.25;;
16385;SDS011;8302;51.154;4.456;2023-02-28T09:28:12;5.32;;;1.48;;
16385;SDS011;8302;51.154;4.456;2023-02-28T09:30:42;1.98;;;0.95;;
16385;SDS011;8302;51.154;4.456;2023-02-28T09:33:09;3.30;;;1.48;;
16385;SDS011;8302;51.154;4.456;2023-02-28T09:35:38;2.33;;;1.55;;
16385;SDS011;8302;51.154;4.456;2023-02-28T09:38:06;2.00;;;1.08;;
16385;SDS011;8302;51.154;4.456;2023-02-28T09:40:35;2.15;;;0.80;;
16385;SDS011;8302;51.154;4.456;2023-02-28T09:43:03;1.85;;;1.40;;
16385;SDS011;8302;51.154;4.456;2023-02-28T09:45:33;1.23;;;1.02;;
16385;SDS011;8302;51.154;4.456;2023-02-28T09:48:03;1.67;;;1.30;;
16385;SDS011;8302;51.154;4.456;2023-02-28T09:50:33;2.33;;;0.90;;
16385;SDS011;8302;51.154;4.456;2023-02-28T09:53:06;1.80;;;1.10;;
16385;SDS011;8302;51.154;4.456;2023-02-28T09:55:38;2.22;;;1.30;;
16385;SDS011;8302;51.154;4.456;2023-02-28T09:58:15;1.60;;;1.05;;
16385;SDS011;8302;51.154;4.456;2023-02-28T10:00:44;1.55;;;1.33;;
16385;SDS011;8302;51.154;4.456;2023-02-28T10:03:20;1.33;;;0.85;;
16385;SDS011;8302;51.154;4.456;2023-02-28T10:05:52;1.20;;;1.10;;
16385;SDS011;8302;51.154;4.456;2023-02-28T10:08:22;2.38;;;1.15;;
16385;SDS011;8302;51.154;4.456;2023-02-28T10:10:53;1.08;;;0.82;;
16385;SDS011;8302;51.154;4.456;2023-02-28T10:13:24;0.90;;;0.70;;
16385;SDS011;8302;51.154;4.456;2023-02-28T10:15:53;1.83;;;1.30;;
16385;SDS011;8302;51.154;4.456;2023-02-28T10:18:23;1.92;;;1.02;;
16385;SDS011;8302;51.154;4.456;2023-02-28T10:20:52;2.40;;;1.20;;
16385;SDS011;8302;51.154;4.456;2023-02-28T10:23:24;2.47;;;0.90;;
16385;SDS011;8302;51.154;4.456;2023-02-28T10:25:54;1.13;;;1.02;;
16385;SDS011;8302;51.154;4.456;2023-02-28T10:28:23;1.08;;;0.93;;
16385;SDS011;8302;51.154;4.456;2023-02-28T10:30:52;1.48;;;1.10;;
16385;SDS011;8302;51.154;4.456;2023-02-28T10:33:24;2.78;;;1.42;;
16385;SDS011;8302;51.154;4.456;2023-02-28T10:35:52;1.65;;;1.25;;
16385;SDS011;8302;51.154;4.456;2023-02-28T10:38:21;1.40;;;1.13;;
16385;SDS011;8302;51.154;4.456;2023-02-28T10:40:50;2.47;;;1.10;;
16385;SDS011;8302;51.154;4.456;2023-02-28T10:43:20;1.00;;;0.90;;
16385;SDS011;8302;51.154;4.456;2023-02-28T10:45:58;2.28;;;1.10;;
16385;SDS011;8302;51.154;4.456;2023-02-28T10:48:30;2.05;;;1.00;;
16385;SDS011;8302;51.154;4.456;2023-02-28T10:50:59;1.27;;;0.70;;
16385;SDS011;8302;51.154;4.456;2023-02-28T10:53:31;3.90;;;1.00;;
16385;SDS011;8302;51.154;4.456;2023-02-28T10:56:21;0.98;;;0.98;;
16385;SDS011;8302;51.154;4.456;2023-02-28T10:58:50;1.50;;;1.15;;
16385;SDS011;8302;51.154;4.456;2023-02-28T11:01:19;1.17;;;0.98;;
16385;SDS011;8302;51.154;4.456;2023-02-28T11:03:47;3.72;;;0.90;;
16385;SDS011;8302;51.154;4.456;2023-02-28T11:06:16;0.80;;;0.77;;
16385;SDS011;8302;51.154;4.456;2023-02-28T11:08:45;0.98;;;0.90;;
16385;SDS011;8302;51.154;4.456;2023-02-28T11:11:13;1.42;;;0.93;;
16385;SDS011;8302;51.154;4.456;2023-02-28T11:13:43;1.35;;;0.98;;
16385;SDS011;8302;51.154;4.456;2023-02-28T11:16:12;1.60;;;0.90;;
16385;SDS011;8302;51.154;4.456;2023-02-28T11:18:42;1.17;;;0.70;;
16385;SDS011;8302;51.154;4.456;2023-02-28T11:21:15;1.55;;;0.80;;
16385;SDS011;8302;51.154;4.456;2023-02-28T11:23:44;2.00;;;0.95;;
16385;SDS011;8302;51.154;4.456;2023-02-28T11:26:34;1.50;;;1.05;;
16385;SDS011;8302;51.154;4.456;2023-02-28T11:29:08;2.13;;;0.70;;
16385;SDS011;8302;51.154;4.456;2023-02-28T11:31:36;1.25;;;0.88;;
16385;SDS011;8302;51.154;4.456;2023-02-28T11:34:10;1.10;;;0.80;;
16385;SDS011;8302;51.154;4.456;2023-02-28T11:36:48;2.13;;;0.80;;
16385;SDS011;8302;51.154;4.456;2023-02-28T11:39:16;1.73;;;0.88;;
16385;SDS011;8302;51.154;4.456;2023-02-28T11:44:38;1.85;;;1.05;;
16385;SDS011;8302;51.154;4.456;2023-02-28T11:47:10;1.90;;;0.85;;
16385;SDS011;8302;51.154;4.456;2023-02-28T11:49:42;1.05;;;0.80;;
16385;SDS011;8302;51.154;4.456;2023-02-28T11:52:15;2.10;;;0.88;;
16385;SDS011;8302;51.154;4.456;2023-02-28T11:54:54;1.10;;;0.73;;
16385;SDS011;8302;51.154;4.456;2023-02-28T11:57:32;1.05;;;0.90;;
16385;SDS011;8302;51.154;4.456;2023-02-28T12:00:07;1.23;;;0.90;;
16385;SDS011;8302;51.154;4.456;2023-02-28T12:02:42;1.02;;;0.93;;
16385;SDS011;8302;51.154;4.456;2023-02-28T12:05:20;2.05;;;1.00;;
16385;SDS011;8302;51.154;4.456;2023-02-28T12:07:54;0.82;;;0.75;;
16385;SDS011;8302;51.154;4.456;2023-02-28T12:10:23;0.60;;;0.55;;
16385;SDS011;8302;51.154;4.456;2023-02-28T12:12:55;0.63;;;0.60;;
16385;SDS011;8302;51.154;4.456;2023-02-28T12:15:39;0.65;;;0.50;;
16385;SDS011;8302;51.154;4.456;2023-02-28T12:18:14;0.90;;;0.80;;
16385;SDS011;8302;51.154;4.456;2023-02-28T12:20:46;0.50;;;0.50;;
16385;SDS011;8302;51.154;4.456;2023-02-28T12:23:22;0.57;;;0.57;;
16385;SDS011;8302;51.154;4.456;2023-02-28T12:25:59;1.33;;;0.80;;
16385;SDS011;8302;51.154;4.456;2023-02-28T12:28:30;1.38;;;0.60;;
16385;SDS011;8302;51.154;4.456;2023-02-28T12:31:01;1.33;;;0.90;;
16385;SDS011;8302;51.154;4.456;2023-02-28T12:33:32;0.68;;;0.60;;
16385;SDS011;8302;51.154;4.456;2023-02-28T12:36:01;0.85;;;0.50;;
16385;SDS011;8302;51.154;4.456;2023-02-28T12:38:34;0.60;;;0.60;;
16385;SDS011;8302;51.154;4.456;2023-02-28T12:41:03;0.82;;;0.60;;
16385;SDS011;8302;51.154;4.456;2023-02-28T12:43:33;2.55;;;0.60;;
16385;SDS011;8302;51.154;4.456;2023-02-28T12:46:06;0.65;;;0.50;;
16385;SDS011;8302;51.154;4.456;2023-02-28T12:48:37;1.33;;;0.75;;
16385;SDS011;8302;51.154;4.456;2023-02-28T12:51:06;0.85;;;0.70;;
16385;SDS011;8302;51.154;4.456;2023-02-28T12:53:36;0.70;;;0.70;;
16385;SDS011;8302;51.154;4.456;2023-02-28T12:56:09;0.98;;;0.70;;
16385;SDS011;8302;51.154;4.456;2023-02-28T12:58:37;1.05;;;0.60;;
16385;SDS011;8302;51.154;4.456;2023-02-28T13:03:59;1.30;;;0.82;;
16385;SDS011;8302;51.154;4.456;2023-02-28T13:06:34;0.65;;;0.65;;
16385;SDS011;8302;51.154;4.456;2023-02-28T13:09:09;0.50;;;0.50;;
16385;SDS011;8302;51.154;4.456;2023-02-28T13:11:39;0.65;;;0.52;;
16385;SDS011;8302;51.154;4.456;2023-02-28T13:14:16;1.23;;;0.88;;
16385;SDS011;8302;51.154;4.456;2023-02-28T13:16:56;0.93;;;0.70;;
16385;SDS011;8302;51.154;4.456;2023-02-28T13:19:27;0.57;;;0.50;;
16385;SDS011;8302;51.154;4.456;2023-02-28T13:21:55;0.80;;;0.70;;
16385;SDS011;8302;51.154;4.456;2023-02-28T13:24:43;0.80;;;0.65;;
16385;SDS011;8302;51.154;4.456;2023-02-28T13:30:00;0.60;;;0.60;;
16385;SDS011;8302;51.154;4.456;2023-02-28T13:32:35;0.70;;;0.70;;
16385;SDS011;8302;51.154;4.456;2023-02-28T13:40:40;1.02;;;0.80;;
16385;SDS011;8302;51.154;4.456;2023-02-28T13:43:08;0.60;;;0.60;;
16385;SDS011;8302;51.154;4.456;2023-02-28T13:45:36;0.98;;;0.65;;
16385;SDS011;8302;51.154;4.456;2023-02-28T13:48:15;0.50;;;0.50;;
16385;SDS011;8302;51.154;4.456;2023-02-28T13:50:43;0.30;;;0.30;;
16385;SDS011;8302;51.154;4.456;2023-02-28T13:56:00;1.17;;;0.90;;
16385;SDS011;8302;51.154;4.456;2023-02-28T13:58:39;0.40;;;0.40;;
16385;SDS011;8302;51.154;4.456;2023-02-28T14:01:14;0.65;;;0.50;;
16385;SDS011;8302;51.154;4.456;2023-02-28T14:04:02;0.60;;;0.60;;
16385;SDS011;8302;51.154;4.456;2023-02-28T14:06:34;0.63;;;0.57;;
16385;SDS011;8302;51.154;4.456;2023-02-28T14:09:06;1.23;;;0.63;;
16385;SDS011;8302;51.154;4.456;2023-02-28T14:11:45;0.55;;;0.50;;
16385;SDS011;8302;51.154;4.456;2023-02-28T14:16:56;1.48;;;0.60;;
16385;SDS011;8302;51.154;4.456;2023-02-28T14:19:25;0.93;;;0.73;;
16385;SDS011;8302;51.154;4.456;2023-02-28T14:22:00;0.60;;;0.57;;
16385;SDS011;8302;51.154;4.456;2023-02-28T14:24:39;2.22;;;0.47;;
16385;SDS011;8302;51.154;4.456;2023-02-28T14:27:26;0.40;;;0.40;;
16385;SDS011;8302;51.154;4.456;2023-02-28T14:30:02;0.40;;;0.40;;
16385;SDS011;8302;51.154;4.456;2023-02-28T14:32:33;0.40;;;0.40;;
16385;SDS011;8302;51.154;4.456;2023-02-28T14:35:03;0.88;;;0.70;;
16385;SDS011;8302;51.154;4.456;2023-02-28T14:37:33;1.15;;;0.57;;
16385;SDS011;8302;51.154;4.456;2023-02-28T14:40:11;1.05;;;0.80;;
16385;SDS011;8302;51.154;4.456;2023-02-28T14:42:46;0.30;;;0.30;;
16385;SDS011;8302;51.154;4.456;2023-02-28T14:45:17;0.50;;;0.50;;
16385;SDS011;8302;51.154;4.456;2023-02-28T14:47:46;0.70;;;0.60;;
16385;SDS011;8302;51.154;4.456;2023-02-28T14:50:17;0.68;;;0.65;;
16385;SDS011;8302;51.154;4.456;2023-02-28T14:52:45;1.17;;;0.73;;
16385;SDS011;8302;51.154;4.456;2023-02-28T14:55:14;1.00;;;0.70;;
16385;SDS011;8302;51.154;4.456;2023-02-28T14:57:50;0.60;;;0.60;;
16385;SDS011;8302;51.154;4.456;2023-02-28T15:00:21;1.02;;;0.60;;
16385;SDS011;8302;51.154;4.456;2023-02-28T15:02:49;2.50;;;0.75;;
16385;SDS011;8302;51.154;4.456;2023-02-28T15:05:20;1.38;;;0.60;;
16385;SDS011;8302;51.154;4.456;2023-02-28T15:07:49;0.60;;;0.60;;
16385;SDS011;8302;51.154;4.456;2023-02-28T15:10:27;0.77;;;0.50;;
16385;SDS011;8302;51.154;4.456;2023-02-28T15:12:57;0.85;;;0.60;;
16385;SDS011;8302;51.154;4.456;2023-02-28T15:15:26;0.60;;;0.60;;
16385;SDS011;8302;51.154;4.456;2023-02-28T15:18:14;0.75;;;0.70;;
16385;SDS011;8302;51.154;4.456;2023-02-28T15:20:43;1.30;;;0.82;;
16385;SDS011;8302;51.154;4.456;2023-02-28T15:23:11;1.10;;;0.68;;
16385;SDS011;8302;51.154;4.456;2023-02-28T15:25:39;1.50;;;0.77;;
16385;SDS011;8302;51.154;4.456;2023-02-28T15:28:10;1.05;;;0.70;;
16385;SDS011;8302;51.154;4.456;2023-02-28T15:30:49;1.58;;;0.85;;
16385;SDS011;8302;51.154;4.456;2023-02-28T15:33:18;1.02;;;0.60;;
16385;SDS011;8302;51.154;4.456;2023-02-28T15:35:46;1.02;;;0.93;;
16385;SDS011;8302;51.154;4.456;2023-02-28T15:38:16;0.90;;;0.80;;
16385;SDS011;8302;51.154;4.456;2023-02-28T15:40:45;1.33;;;0.98;;
16385;SDS011;8302;51.154;4.456;2023-02-28T15:43:24;0.80;;;0.80;;
16385;SDS011;8302;51.154;4.456;2023-02-28T15:45:55;1.48;;;0.80;;